OIYY  Shahid Sadooghi  Airport

Yazd, Iran

Add Bookmark
ICAO OIYY
IATA AZD
Type Airport
Status Operational
Latitude
31° 54' 17" N
31.904900
Longitude
54° 16' 35" E
54.276501
Local (GMT +3.5 ) UTC
Sep 29, 2016 08:29 am Sep 29, 2016 04:59
Sunrise-Sunset Local UTC
Begin Civil Twilight 05:20 am 01:50
Sunrise 05:44 am 02:14
Sunset 05:41 pm 14:11
End Civil Twilight 06:05 pm 14:35
VFR
VFR
MVFR
MVFR
IFR
IFR
LIFR
LIFR
Unknown
Unavailable

Current Weather

METAR Observed VFR
OIYY 290430Z 26004KT CAVOK 26/M08 Q1016 Thu, Sep 29, 2016 @ 04:30 UTC
(29 Minutes ago)
Visual Flight Rules
Wind Visibility Conditions
260° at 4 knots (7 kph) 10 km or more
  • No significant weather
Temperatures Readings Precipitation
Current Temp
26°C
79°F
Dewpoint
-8°C
18°F
Humidity 10%
Altimeter 30" Hg
Sea Level Pressure 1,016 mb
Field Elevation
1,236 m
4,055 ft
None Recorded
-
-

CheckWX.com is intended as a tool to help pilots better visualize weather data. It is not intended as a substitute for an official weather briefing obtained from a Flight Service Station. CheckWX.com does not meet the FAA requirements for an official pre-flight weather briefing. Therefore, it's important that pilots still call and obtain an official FSS pre-flight weather briefing.

© 2007-2016 CheckWX.com
04:59:10 UTC